sensor_id;sensor_type;location;lat;lon;timestamp;P1;durP1;ratioP1;P2;durP2;ratioP2
79338;SDS011;74181;41.704;44.786;2024-02-16T00:00:09;72.00;;;27.30;;
79338;SDS011;74181;41.704;44.786;2024-02-16T00:02:39;75.70;;;27.27;;
79338;SDS011;74181;41.704;44.786;2024-02-16T00:05:06;74.55;;;28.50;;
79338;SDS011;74181;41.704;44.786;2024-02-16T00:07:33;78.82;;;28.58;;
79338;SDS011;74181;41.704;44.786;2024-02-16T00:09:59;78.25;;;28.33;;
79338;SDS011;74181;41.704;44.786;2024-02-16T00:12:25;74.95;;;28.60;;
79338;SDS011;74181;41.704;44.786;2024-02-16T00:14:51;73.60;;;27.83;;
79338;SDS011;74181;41.704;44.786;2024-02-16T00:17:17;75.68;;;27.83;;
79338;SDS011;74181;41.704;44.786;2024-02-16T00:19:44;75.55;;;28.30;;
79338;SDS011;74181;41.704;44.786;2024-02-16T00:22:10;82.78;;;29.05;;
79338;SDS011;74181;41.704;44.786;2024-02-16T00:24:36;74.75;;;26.98;;
79338;SDS011;74181;41.704;44.786;2024-02-16T00:27:02;74.70;;;27.17;;
79338;SDS011;74181;41.704;44.786;2024-02-16T00:29:31;78.60;;;27.80;;
79338;SDS011;74181;41.704;44.786;2024-02-16T00:31:57;76.95;;;29.02;;
79338;SDS011;74181;41.704;44.786;2024-02-16T00:34:25;76.95;;;28.90;;
79338;SDS011;74181;41.704;44.786;2024-02-16T00:36:51;73.45;;;28.58;;
79338;SDS011;74181;41.704;44.786;2024-02-16T00:39:17;71.27;;;27.67;;
79338;SDS011;74181;41.704;44.786;2024-02-16T00:41:43;75.03;;;28.10;;
79338;SDS011;74181;41.704;44.786;2024-02-16T00:44:11;75.13;;;29.38;;
79338;SDS011;74181;41.704;44.786;2024-02-16T00:46:37;74.78;;;28.52;;
79338;SDS011;74181;41.704;44.786;2024-02-16T00:49:03;74.50;;;29.70;;
79338;SDS011;74181;41.704;44.786;2024-02-16T00:51:29;73.87;;;28.33;;
79338;SDS011;74181;41.704;44.786;2024-02-16T00:53:56;80.57;;;30.23;;
79338;SDS011;74181;41.704;44.786;2024-02-16T00:56:21;74.72;;;29.48;;
79338;SDS011;74181;41.704;44.786;2024-02-16T00:58:47;77.95;;;29.02;;
79338;SDS011;74181;41.704;44.786;2024-02-16T01:01:14;81.40;;;30.00;;
79338;SDS011;74181;41.704;44.786;2024-02-16T01:03:40;75.10;;;29.63;;
79338;SDS011;74181;41.704;44.786;2024-02-16T01:06:06;79.15;;;29.17;;
79338;SDS011;74181;41.704;44.786;2024-02-16T01:08:35;84.88;;;31.05;;
79338;SDS011;74181;41.704;44.786;2024-02-16T01:11:01;81.32;;;31.20;;
79338;SDS011;74181;41.704;44.786;2024-02-16T01:13:28;84.43;;;31.88;;
79338;SDS011;74181;41.704;44.786;2024-02-16T01:15:54;77.17;;;30.03;;
79338;SDS011;74181;41.704;44.786;2024-02-16T01:18:20;75.82;;;29.60;;
79338;SDS011;74181;41.704;44.786;2024-02-16T01:20:45;82.90;;;30.35;;
79338;SDS011;74181;41.704;44.786;2024-02-16T01:23:12;76.82;;;28.55;;
79338;SDS011;74181;41.704;44.786;2024-02-16T01:25:38;80.28;;;29.75;;
79338;SDS011;74181;41.704;44.786;2024-02-16T01:28:04;76.10;;;29.80;;
79338;SDS011;74181;41.704;44.786;2024-02-16T01:30:30;83.47;;;30.77;;
79338;SDS011;74181;41.704;44.786;2024-02-16T01:32:56;82.53;;;30.83;;
79338;SDS011;74181;41.704;44.786;2024-02-16T01:35:22;80.20;;;30.10;;
79338;SDS011;74181;41.704;44.786;2024-02-16T01:37:48;80.25;;;30.15;;
79338;SDS011;74181;41.704;44.786;2024-02-16T01:40:14;79.20;;;29.17;;
79338;SDS011;74181;41.704;44.786;2024-02-16T01:42:46;72.82;;;28.05;;
79338;SDS011;74181;41.704;44.786;2024-02-16T01:45:13;75.60;;;28.70;;
79338;SDS011;74181;41.704;44.786;2024-02-16T01:47:39;81.05;;;28.75;;
79338;SDS011;74181;41.704;44.786;2024-02-16T01:50:08;77.57;;;28.90;;
79338;SDS011;74181;41.704;44.786;2024-02-16T01:52:34;69.73;;;27.63;;
79338;SDS011;74181;41.704;44.786;2024-02-16T01:55:05;81.70;;;29.42;;
79338;SDS011;74181;41.704;44.786;2024-02-16T01:57:34;78.03;;;28.58;;
79338;SDS011;74181;41.704;44.786;2024-02-16T02:00:00;75.85;;;29.45;;
79338;SDS011;74181;41.704;44.786;2024-02-16T02:02:26;74.95;;;28.17;;
79338;SDS011;74181;41.704;44.786;2024-02-16T02:04:53;82.43;;;29.10;;
79338;SDS011;74181;41.704;44.786;2024-02-16T02:07:24;84.32;;;29.23;;
79338;SDS011;74181;41.704;44.786;2024-02-16T02:09:51;79.47;;;29.10;;
79338;SDS011;74181;41.704;44.786;2024-02-16T02:12:17;87.55;;;30.80;;
79338;SDS011;74181;41.704;44.786;2024-02-16T02:14:43;73.95;;;27.90;;
79338;SDS011;74181;41.704;44.786;2024-02-16T02:17:10;81.37;;;30.70;;
79338;SDS011;74181;41.704;44.786;2024-02-16T02:19:36;84.72;;;30.13;;
79338;SDS011;74181;41.704;44.786;2024-02-16T02:22:02;82.85;;;30.35;;
79338;SDS011;74181;41.704;44.786;2024-02-16T02:24:28;82.95;;;29.77;;
79338;SDS011;74181;41.704;44.786;2024-02-16T02:26:54;78.90;;;30.67;;
79338;SDS011;74181;41.704;44.786;2024-02-16T02:29:20;78.03;;;30.43;;
79338;SDS011;74181;41.704;44.786;2024-02-16T02:31:46;82.60;;;31.38;;
79338;SDS011;74181;41.704;44.786;2024-02-16T02:34:12;83.03;;;30.35;;
79338;SDS011;74181;41.704;44.786;2024-02-16T02:36:39;78.13;;;30.27;;
79338;SDS011;74181;41.704;44.786;2024-02-16T02:39:06;73.55;;;28.17;;
79338;SDS011;74181;41.704;44.786;2024-02-16T02:41:32;81.03;;;29.10;;
79338;SDS011;74181;41.704;44.786;2024-02-16T02:43:58;73.88;;;28.23;;
79338;SDS011;74181;41.704;44.786;2024-02-16T02:46:24;79.07;;;28.73;;
79338;SDS011;74181;41.704;44.786;2024-02-16T02:48:50;77.95;;;28.77;;
79338;SDS011;74181;41.704;44.786;2024-02-16T02:51:17;73.05;;;27.63;;
79338;SDS011;74181;41.704;44.786;2024-02-16T02:53:43;79.70;;;28.90;;
79338;SDS011;74181;41.704;44.786;2024-02-16T02:56:09;79.00;;;29.17;;
79338;SDS011;74181;41.704;44.786;2024-02-16T02:58:35;74.65;;;29.15;;
79338;SDS011;74181;41.704;44.786;2024-02-16T03:01:01;74.90;;;28.63;;
79338;SDS011;74181;41.704;44.786;2024-02-16T03:03:27;77.90;;;28.27;;
79338;SDS011;74181;41.704;44.786;2024-02-16T03:05:55;75.03;;;28.80;;
79338;SDS011;74181;41.704;44.786;2024-02-16T03:08:21;76.22;;;29.58;;
79338;SDS011;74181;41.704;44.786;2024-02-16T03:10:50;79.00;;;29.75;;
79338;SDS011;74181;41.704;44.786;2024-02-16T03:13:17;74.80;;;28.95;;
79338;SDS011;74181;41.704;44.786;2024-02-16T03:15:44;79.32;;;29.98;;
79338;SDS011;74181;41.704;44.786;2024-02-16T03:18:10;74.03;;;29.80;;
79338;SDS011;74181;41.704;44.786;2024-02-16T03:20:36;78.38;;;29.83;;
79338;SDS011;74181;41.704;44.786;2024-02-16T03:23:02;78.38;;;29.10;;
79338;SDS011;74181;41.704;44.786;2024-02-16T03:25:29;85.22;;;30.42;;
79338;SDS011;74181;41.704;44.786;2024-02-16T03:27:55;85.93;;;31.95;;
79338;SDS011;74181;41.704;44.786;2024-02-16T03:30:21;79.40;;;30.23;;
79338;SDS011;74181;41.704;44.786;2024-02-16T03:32:50;90.15;;;31.85;;
79338;SDS011;74181;41.704;44.786;2024-02-16T03:35:18;91.13;;;32.10;;
79338;SDS011;74181;41.704;44.786;2024-02-16T03:37:44;86.45;;;32.50;;
79338;SDS011;74181;41.704;44.786;2024-02-16T03:40:10;94.50;;;33.80;;
79338;SDS011;74181;41.704;44.786;2024-02-16T03:42:38;93.87;;;32.90;;
79338;SDS011;74181;41.704;44.786;2024-02-16T03:45:06;90.05;;;32.78;;
79338;SDS011;74181;41.704;44.786;2024-02-16T03:47:33;91.40;;;33.78;;
79338;SDS011;74181;41.704;44.786;2024-02-16T03:49:59;92.65;;;33.72;;
79338;SDS011;74181;41.704;44.786;2024-02-16T03:52:25;91.45;;;32.97;;
79338;SDS011;74181;41.704;44.786;2024-02-16T03:54:52;90.40;;;32.80;;
79338;SDS011;74181;41.704;44.786;2024-02-16T03:57:18;90.72;;;32.20;;
79338;SDS011;74181;41.704;44.786;2024-02-16T03:59:44;91.38;;;32.80;;
79338;SDS011;74181;41.704;44.786;2024-02-16T04:02:11;89.45;;;31.98;;
79338;SDS011;74181;41.704;44.786;2024-02-16T04:04:39;83.93;;;31.40;;
79338;SDS011;74181;41.704;44.786;2024-02-16T04:07:05;88.20;;;31.50;;
79338;SDS011;74181;41.704;44.786;2024-02-16T04:09:34;84.53;;;30.95;;
79338;SDS011;74181;41.704;44.786;2024-02-16T04:12:01;87.13;;;30.85;;
79338;SDS011;74181;41.704;44.786;2024-02-16T04:14:27;89.00;;;30.35;;
79338;SDS011;74181;41.704;44.786;2024-02-16T04:16:53;82.32;;;30.98;;
79338;SDS011;74181;41.704;44.786;2024-02-16T04:19:19;83.43;;;30.83;;
79338;SDS011;74181;41.704;44.786;2024-02-16T04:21:45;86.88;;;30.88;;
79338;SDS011;74181;41.704;44.786;2024-02-16T04:24:12;88.28;;;31.40;;
79338;SDS011;74181;41.704;44.786;2024-02-16T04:26:38;84.70;;;30.73;;
79338;SDS011;74181;41.704;44.786;2024-02-16T04:29:04;86.88;;;31.35;;
79338;SDS011;74181;41.704;44.786;2024-02-16T04:31:30;79.73;;;29.87;;
79338;SDS011;74181;41.704;44.786;2024-02-16T04:33:56;77.95;;;28.58;;
79338;SDS011;74181;41.704;44.786;2024-02-16T04:36:22;81.40;;;30.58;;
79338;SDS011;74181;41.704;44.786;2024-02-16T04:38:49;81.97;;;30.33;;
79338;SDS011;74181;41.704;44.786;2024-02-16T04:41:15;78.78;;;29.73;;
79338;SDS011;74181;41.704;44.786;2024-02-16T04:43:41;78.57;;;29.17;;
79338;SDS011;74181;41.704;44.786;2024-02-16T04:46:07;73.13;;;27.40;;
79338;SDS011;74181;41.704;44.786;2024-02-16T04:48:38;83.05;;;29.60;;
79338;SDS011;74181;41.704;44.786;2024-02-16T04:51:04;81.18;;;29.35;;
79338;SDS011;74181;41.704;44.786;2024-02-16T04:53:30;77.93;;;29.77;;
79338;SDS011;74181;41.704;44.786;2024-02-16T04:55:56;75.47;;;28.17;;
79338;SDS011;74181;41.704;44.786;2024-02-16T04:58:22;75.80;;;29.27;;
79338;SDS011;74181;41.704;44.786;2024-02-16T05:00:48;75.75;;;28.95;;
79338;SDS011;74181;41.704;44.786;2024-02-16T05:03:14;75.15;;;28.73;;
79338;SDS011;74181;41.704;44.786;2024-02-16T05:05:40;78.28;;;29.88;;
79338;SDS011;74181;41.704;44.786;2024-02-16T05:08:06;79.73;;;29.23;;
79338;SDS011;74181;41.704;44.786;2024-02-16T05:10:33;79.63;;;29.05;;
79338;SDS011;74181;41.704;44.786;2024-02-16T05:12:59;73.78;;;27.85;;
79338;SDS011;74181;41.704;44.786;2024-02-16T05:15:25;73.65;;;27.65;;
79338;SDS011;74181;41.704;44.786;2024-02-16T05:17:53;75.63;;;27.85;;
79338;SDS011;74181;41.704;44.786;2024-02-16T05:20:19;76.83;;;28.30;;
79338;SDS011;74181;41.704;44.786;2024-02-16T05:22:45;76.38;;;28.30;;
79338;SDS011;74181;41.704;44.786;2024-02-16T05:25:12;75.90;;;27.98;;
79338;SDS011;74181;41.704;44.786;2024-02-16T05:27:39;72.05;;;27.25;;
79338;SDS011;74181;41.704;44.786;2024-02-16T05:30:05;67.28;;;26.95;;
79338;SDS011;74181;41.704;44.786;2024-02-16T05:32:37;73.03;;;27.27;;
79338;SDS011;74181;41.704;44.786;2024-02-16T05:35:03;70.20;;;26.90;;
79338;SDS011;74181;41.704;44.786;2024-02-16T05:37:48;69.85;;;26.65;;
79338;SDS011;74181;41.704;44.786;2024-02-16T05:40:17;67.80;;;26.52;;
79338;SDS011;74181;41.704;44.786;2024-02-16T05:42:52;71.47;;;26.83;;
79338;SDS011;74181;41.704;44.786;2024-02-16T05:45:19;73.53;;;27.43;;
79338;SDS011;74181;41.704;44.786;2024-02-16T05:47:47;70.63;;;28.13;;
79338;SDS011;74181;41.704;44.786;2024-02-16T05:50:13;77.43;;;27.90;;
79338;SDS011;74181;41.704;44.786;2024-02-16T05:52:40;71.95;;;27.58;;
79338;SDS011;74181;41.704;44.786;2024-02-16T05:55:07;71.22;;;26.67;;
79338;SDS011;74181;41.704;44.786;2024-02-16T05:57:34;70.80;;;27.70;;
79338;SDS011;74181;41.704;44.786;2024-02-16T06:00:01;68.50;;;28.30;;
79338;SDS011;74181;41.704;44.786;2024-02-16T06:02:31;70.05;;;26.63;;
79338;SDS011;74181;41.704;44.786;2024-02-16T06:05:00;74.15;;;27.42;;
79338;SDS011;74181;41.704;44.786;2024-02-16T06:07:26;66.70;;;26.27;;
79338;SDS011;74181;41.704;44.786;2024-02-16T06:09:54;69.30;;;26.93;;
79338;SDS011;74181;41.704;44.786;2024-02-16T06:12:21;66.72;;;26.77;;
79338;SDS011;74181;41.704;44.786;2024-02-16T06:14:47;77.93;;;33.22;;
79338;SDS011;74181;41.704;44.786;2024-02-16T06:17:14;65.68;;;25.77;;
79338;SDS011;74181;41.704;44.786;2024-02-16T06:19:41;62.80;;;24.98;;
79338;SDS011;74181;41.704;44.786;2024-02-16T06:22:07;61.97;;;24.70;;
79338;SDS011;74181;41.704;44.786;2024-02-16T06:24:36;66.32;;;25.83;;
79338;SDS011;74181;41.704;44.786;2024-02-16T06:27:03;63.63;;;24.60;;
79338;SDS011;74181;41.704;44.786;2024-02-16T06:29:30;62.03;;;24.52;;
79338;SDS011;74181;41.704;44.786;2024-02-16T06:31:56;57.60;;;23.85;;
79338;SDS011;74181;41.704;44.786;2024-02-16T06:34:22;59.20;;;23.97;;
79338;SDS011;74181;41.704;44.786;2024-02-16T06:36:48;60.13;;;23.65;;
79338;SDS011;74181;41.704;44.786;2024-02-16T06:39:17;62.28;;;24.30;;
79338;SDS011;74181;41.704;44.786;2024-02-16T06:41:44;67.93;;;28.73;;
79338;SDS011;74181;41.704;44.786;2024-02-16T06:44:13;58.70;;;24.77;;
79338;SDS011;74181;41.704;44.786;2024-02-16T06:46:40;57.13;;;24.40;;
79338;SDS011;74181;41.704;44.786;2024-02-16T06:49:06;59.35;;;22.48;;
79338;SDS011;74181;41.704;44.786;2024-02-16T06:51:32;51.63;;;22.55;;
79338;SDS011;74181;41.704;44.786;2024-02-16T06:53:58;54.67;;;22.40;;
79338;SDS011;74181;41.704;44.786;2024-02-16T06:56:24;56.15;;;23.15;;
79338;SDS011;74181;41.704;44.786;2024-02-16T06:58:50;54.83;;;23.10;;
79338;SDS011;74181;41.704;44.786;2024-02-16T07:01:16;57.72;;;23.42;;
79338;SDS011;74181;41.704;44.786;2024-02-16T07:03:45;56.10;;;22.50;;
79338;SDS011;74181;41.704;44.786;2024-02-16T07:06:11;55.13;;;22.83;;
79338;SDS011;74181;41.704;44.786;2024-02-16T07:08:42;57.25;;;22.75;;
79338;SDS011;74181;41.704;44.786;2024-02-16T07:11:09;55.93;;;22.50;;
79338;SDS011;74181;41.704;44.786;2024-02-16T07:13:40;59.22;;;22.38;;
79338;SDS011;74181;41.704;44.786;2024-02-16T07:16:08;53.28;;;22.70;;
79338;SDS011;74181;41.704;44.786;2024-02-16T07:18:34;56.70;;;23.50;;
79338;SDS011;74181;41.704;44.786;2024-02-16T07:21:00;63.60;;;25.55;;
79338;SDS011;74181;41.704;44.786;2024-02-16T07:23:27;51.77;;;22.10;;
79338;SDS011;74181;41.704;44.786;2024-02-16T07:25:54;53.78;;;22.23;;
79338;SDS011;74181;41.704;44.786;2024-02-16T07:28:25;59.83;;;23.70;;
79338;SDS011;74181;41.704;44.786;2024-02-16T07:30:51;54.72;;;23.00;;
79338;SDS011;74181;41.704;44.786;2024-02-16T07:33:18;53.83;;;22.98;;
79338;SDS011;74181;41.704;44.786;2024-02-16T07:35:44;58.07;;;22.40;;
79338;SDS011;74181;41.704;44.786;2024-02-16T07:38:11;56.58;;;23.10;;
79338;SDS011;74181;41.704;44.786;2024-02-16T07:40:37;52.35;;;21.95;;
79338;SDS011;74181;41.704;44.786;2024-02-16T07:43:03;66.63;;;32.25;;
79338;SDS011;74181;41.704;44.786;2024-02-16T07:45:30;55.78;;;23.50;;
79338;SDS011;74181;41.704;44.786;2024-02-16T07:47:56;50.10;;;21.70;;
79338;SDS011;74181;41.704;44.786;2024-02-16T07:50:22;46.30;;;20.77;;
79338;SDS011;74181;41.704;44.786;2024-02-16T07:52:49;49.05;;;21.23;;
79338;SDS011;74181;41.704;44.786;2024-02-16T07:55:15;49.92;;;21.25;;
79338;SDS011;74181;41.704;44.786;2024-02-16T07:57:46;50.63;;;20.40;;
79338;SDS011;74181;41.704;44.786;2024-02-16T08:00:12;47.37;;;20.93;;
79338;SDS011;74181;41.704;44.786;2024-02-16T08:02:41;54.95;;;21.45;;
79338;SDS011;74181;41.704;44.786;2024-02-16T08:05:10;51.92;;;21.85;;
79338;SDS011;74181;41.704;44.786;2024-02-16T08:07:40;50.53;;;21.15;;
79338;SDS011;74181;41.704;44.786;2024-02-16T08:10:10;50.80;;;20.50;;
79338;SDS011;74181;41.704;44.786;2024-02-16T08:12:36;52.23;;;21.77;;
79338;SDS011;74181;41.704;44.786;2024-02-16T08:15:02;56.03;;;22.42;;
79338;SDS011;74181;41.704;44.786;2024-02-16T08:17:29;53.17;;;22.27;;
79338;SDS011;74181;41.704;44.786;2024-02-16T08:19:56;51.10;;;22.10;;
79338;SDS011;74181;41.704;44.786;2024-02-16T08:22:22;47.83;;;21.13;;
79338;SDS011;74181;41.704;44.786;2024-02-16T08:24:49;51.10;;;22.03;;
79338;SDS011;74181;41.704;44.786;2024-02-16T08:27:16;50.92;;;22.35;;
79338;SDS011;74181;41.704;44.786;2024-02-16T08:29:44;52.08;;;21.73;;
79338;SDS011;74181;41.704;44.786;2024-02-16T08:32:11;50.28;;;21.35;;
79338;SDS011;74181;41.704;44.786;2024-02-16T08:34:37;50.95;;;22.10;;
79338;SDS011;74181;41.704;44.786;2024-02-16T08:37:04;55.77;;;22.93;;
79338;SDS011;74181;41.704;44.786;2024-02-16T08:39:30;54.45;;;22.77;;
79338;SDS011;74181;41.704;44.786;2024-02-16T08:41:57;53.00;;;23.05;;
79338;SDS011;74181;41.704;44.786;2024-02-16T08:44:24;52.72;;;23.45;;
79338;SDS011;74181;41.704;44.786;2024-02-16T08:46:50;53.25;;;22.20;;
79338;SDS011;74181;41.704;44.786;2024-02-16T08:49:16;51.50;;;21.87;;
79338;SDS011;74181;41.704;44.786;2024-02-16T08:51:43;54.85;;;22.55;;
79338;SDS011;74181;41.704;44.786;2024-02-16T08:54:09;56.25;;;23.38;;
79338;SDS011;74181;41.704;44.786;2024-02-16T08:56:35;53.30;;;23.85;;
79338;SDS011;74181;41.704;44.786;2024-02-16T08:59:04;57.45;;;24.38;;
79338;SDS011;74181;41.704;44.786;2024-02-16T09:03:57;57.10;;;24.02;;
79338;SDS011;74181;41.704;44.786;2024-02-16T09:06:23;61.15;;;25.42;;
79338;SDS011;74181;41.704;44.786;2024-02-16T09:08:49;60.47;;;24.67;;
79338;SDS011;74181;41.704;44.786;2024-02-16T09:11:15;58.60;;;24.40;;
79338;SDS011;74181;41.704;44.786;2024-02-16T09:13:42;63.83;;;24.03;;
79338;SDS011;74181;41.704;44.786;2024-02-16T09:16:09;65.55;;;26.05;;
79338;SDS011;74181;41.704;44.786;2024-02-16T09:18:35;99.50;;;25.00;;
79338;SDS011;74181;41.704;44.786;2024-02-16T09:21:03;57.33;;;22.45;;
79338;SDS011;74181;41.704;44.786;2024-02-16T09:23:30;58.42;;;23.17;;
79338;SDS011;74181;41.704;44.786;2024-02-16T09:25:57;57.43;;;23.43;;
79338;SDS011;74181;41.704;44.786;2024-02-16T09:28:24;56.55;;;23.13;;
79338;SDS011;74181;41.704;44.786;2024-02-16T09:30:51;54.03;;;22.02;;
79338;SDS011;74181;41.704;44.786;2024-02-16T09:33:17;55.33;;;22.45;;
79338;SDS011;74181;41.704;44.786;2024-02-16T09:35:44;63.67;;;26.15;;
79338;SDS011;74181;41.704;44.786;2024-02-16T09:38:10;67.00;;;27.10;;
79338;SDS011;74181;41.704;44.786;2024-02-16T09:40:36;65.53;;;27.02;;
79338;SDS011;74181;41.704;44.786;2024-02-16T09:43:02;64.75;;;27.17;;
79338;SDS011;74181;41.704;44.786;2024-02-16T09:45:29;63.83;;;27.60;;
79338;SDS011;74181;41.704;44.786;2024-02-16T09:47:57;66.25;;;27.02;;
79338;SDS011;74181;41.704;44.786;2024-02-16T09:50:23;66.90;;;26.83;;
79338;SDS011;74181;41.704;44.786;2024-02-16T09:52:52;65.72;;;27.33;;
79338;SDS011;74181;41.704;44.786;2024-02-16T09:55:20;66.25;;;27.33;;
79338;SDS011;74181;41.704;44.786;2024-02-16T09:57:58;69.88;;;28.15;;
79338;SDS011;74181;41.704;44.786;2024-02-16T10:00:25;67.45;;;27.98;;
79338;SDS011;74181;41.704;44.786;2024-02-16T10:02:51;67.47;;;27.63;;
79338;SDS011;74181;41.704;44.786;2024-02-16T10:05:21;65.75;;;27.25;;
79338;SDS011;74181;41.704;44.786;2024-02-16T10:07:47;68.80;;;28.42;;
79338;SDS011;74181;41.704;44.786;2024-02-16T10:10:35;62.63;;;26.75;;
79338;SDS011;74181;41.704;44.786;2024-02-16T10:13:09;67.40;;;27.08;;
79338;SDS011;74181;41.704;44.786;2024-02-16T10:15:37;66.63;;;25.83;;
79338;SDS011;74181;41.704;44.786;2024-02-16T10:18:04;66.95;;;26.13;;
79338;SDS011;74181;41.704;44.786;2024-02-16T10:20:34;59.63;;;25.58;;
79338;SDS011;74181;41.704;44.786;2024-02-16T10:23:04;62.72;;;25.75;;
79338;SDS011;74181;41.704;44.786;2024-02-16T10:25:36;63.05;;;26.02;;
79338;SDS011;74181;41.704;44.786;2024-02-16T10:28:05;62.07;;;25.47;;
79338;SDS011;74181;41.704;44.786;2024-02-16T10:30:36;65.78;;;25.75;;
79338;SDS011;74181;41.704;44.786;2024-02-16T10:33:06;61.53;;;24.48;;
79338;SDS011;74181;41.704;44.786;2024-02-16T10:35:34;54.13;;;22.38;;
79338;SDS011;74181;41.704;44.786;2024-02-16T10:38:07;51.47;;;22.48;;
79338;SDS011;74181;41.704;44.786;2024-02-16T10:40:40;52.93;;;22.20;;
79338;SDS011;74181;41.704;44.786;2024-02-16T10:43:07;45.20;;;20.63;;
79338;SDS011;74181;41.704;44.786;2024-02-16T10:45:35;47.95;;;20.33;;
79338;SDS011;74181;41.704;44.786;2024-02-16T10:48:02;51.05;;;21.05;;
79338;SDS011;74181;41.704;44.786;2024-02-16T10:50:31;48.92;;;20.40;;
79338;SDS011;74181;41.704;44.786;2024-02-16T10:53:08;43.23;;;20.20;;
79338;SDS011;74181;41.704;44.786;2024-02-16T10:55:43;51.65;;;23.02;;
79338;SDS011;74181;41.704;44.786;2024-02-16T10:58:10;50.13;;;20.65;;
79338;SDS011;74181;41.704;44.786;2024-02-16T11:00:53;49.00;;;19.85;;
79338;SDS011;74181;41.704;44.786;2024-02-16T11:03:25;47.45;;;20.05;;
79338;SDS011;74181;41.704;44.786;2024-02-16T11:05:53;47.67;;;20.03;;
79338;SDS011;74181;41.704;44.786;2024-02-16T11:08:20;50.35;;;20.65;;
79338;SDS011;74181;41.704;44.786;2024-02-16T11:10:59;48.20;;;20.30;;
79338;SDS011;74181;41.704;44.786;2024-02-16T11:13:27;43.67;;;19.38;;
79338;SDS011;74181;41.704;44.786;2024-02-16T11:16:03;49.25;;;18.73;;
79338;SDS011;74181;41.704;44.786;2024-02-16T11:18:36;45.53;;;20.30;;
79338;SDS011;74181;41.704;44.786;2024-02-16T11:21:04;42.88;;;17.40;;
79338;SDS011;74181;41.704;44.786;2024-02-16T11:23:34;43.55;;;18.48;;
79338;SDS011;74181;41.704;44.786;2024-02-16T11:28:31;52.20;;;18.98;;
79338;SDS011;74181;41.704;44.786;2024-02-16T11:30:59;43.90;;;17.63;;
79338;SDS011;74181;41.704;44.786;2024-02-16T11:33:25;48.92;;;18.40;;
79338;SDS011;74181;41.704;44.786;2024-02-16T11:35:55;41.90;;;17.35;;
79338;SDS011;74181;41.704;44.786;2024-02-16T11:38:39;40.72;;;16.05;;
79338;SDS011;74181;41.704;44.786;2024-02-16T11:41:06;38.25;;;16.67;;
79338;SDS011;74181;41.704;44.786;2024-02-16T11:43:35;40.53;;;17.37;;
79338;SDS011;74181;41.704;44.786;2024-02-16T11:46:11;39.35;;;16.42;;
79338;SDS011;74181;41.704;44.786;2024-02-16T11:48:38;61.85;;;17.08;;
79338;SDS011;74181;41.704;44.786;2024-02-16T11:51:04;34.67;;;15.63;;
79338;SDS011;74181;41.704;44.786;2024-02-16T11:53:31;35.38;;;15.50;;
79338;SDS011;74181;41.704;44.786;2024-02-16T11:55:59;34.30;;;14.00;;
79338;SDS011;74181;41.704;44.786;2024-02-16T11:58:25;34.35;;;15.27;;
79338;SDS011;74181;41.704;44.786;2024-02-16T12:00:52;34.75;;;15.82;;
79338;SDS011;74181;41.704;44.786;2024-02-16T12:03:21;29.83;;;13.68;;
79338;SDS011;74181;41.704;44.786;2024-02-16T12:05:52;32.05;;;13.45;;
79338;SDS011;74181;41.704;44.786;2024-02-16T12:08:22;29.10;;;13.50;;
79338;SDS011;74181;41.704;44.786;2024-02-16T12:10:49;30.85;;;13.40;;
79338;SDS011;74181;41.704;44.786;2024-02-16T12:13:19;26.25;;;12.20;;
79338;SDS011;74181;41.704;44.786;2024-02-16T12:15:49;29.00;;;12.35;;
79338;SDS011;74181;41.704;44.786;2024-02-16T12:18:23;25.60;;;11.55;;
79338;SDS011;74181;41.704;44.786;2024-02-16T12:20:57;24.73;;;11.50;;
79338;SDS011;74181;41.704;44.786;2024-02-16T12:23:23;26.77;;;12.50;;
79338;SDS011;74181;41.704;44.786;2024-02-16T12:25:49;29.25;;;13.20;;
79338;SDS011;74181;41.704;44.786;2024-02-16T12:28:15;25.13;;;11.13;;
79338;SDS011;74181;41.704;44.786;2024-02-16T12:30:41;25.65;;;12.25;;
79338;SDS011;74181;41.704;44.786;2024-02-16T12:33:07;25.07;;;11.97;;
79338;SDS011;74181;41.704;44.786;2024-02-16T12:35:33;24.25;;;11.63;;
79338;SDS011;74181;41.704;44.786;2024-02-16T12:38:00;24.83;;;11.65;;
79338;SDS011;74181;41.704;44.786;2024-02-16T12:40:26;24.48;;;11.85;;
79338;SDS011;74181;41.704;44.786;2024-02-16T12:42:52;30.70;;;13.32;;
79338;SDS011;74181;41.704;44.786;2024-02-16T12:45:18;23.97;;;10.80;;
79338;SDS011;74181;41.704;44.786;2024-02-16T12:47:45;25.40;;;10.82;;
79338;SDS011;74181;41.704;44.786;2024-02-16T12:50:12;23.08;;;10.38;;
79338;SDS011;74181;41.704;44.786;2024-02-16T12:52:38;24.75;;;10.55;;
79338;SDS011;74181;41.704;44.786;2024-02-16T12:55:05;20.95;;;10.05;;
79338;SDS011;74181;41.704;44.786;2024-02-16T12:57:32;22.53;;;10.70;;
79338;SDS011;74181;41.704;44.786;2024-02-16T12:59:59;24.08;;;11.00;;
79338;SDS011;74181;41.704;44.786;2024-02-16T13:02:25;26.80;;;11.27;;
79338;SDS011;74181;41.704;44.786;2024-02-16T13:04:51;28.17;;;10.90;;
79338;SDS011;74181;41.704;44.786;2024-02-16T13:07:18;24.02;;;11.20;;
79338;SDS011;74181;41.704;44.786;2024-02-16T13:09:45;22.47;;;10.50;;
79338;SDS011;74181;41.704;44.786;2024-02-16T13:12:11;19.58;;;10.30;;
79338;SDS011;74181;41.704;44.786;2024-02-16T13:14:37;19.20;;;9.95;;
79338;SDS011;74181;41.704;44.786;2024-02-16T13:17:03;20.48;;;10.13;;
79338;SDS011;74181;41.704;44.786;2024-02-16T13:19:30;24.52;;;11.23;;
79338;SDS011;74181;41.704;44.786;2024-02-16T13:21:56;20.23;;;10.40;;
79338;SDS011;74181;41.704;44.786;2024-02-16T13:24:22;20.92;;;10.80;;
79338;SDS011;74181;41.704;44.786;2024-02-16T13:26:48;25.58;;;12.93;;
79338;SDS011;74181;41.704;44.786;2024-02-16T13:29:14;22.38;;;10.85;;
79338;SDS011;74181;41.704;44.786;2024-02-16T13:31:40;20.80;;;10.38;;
79338;SDS011;74181;41.704;44.786;2024-02-16T13:34:08;22.70;;;10.67;;
79338;SDS011;74181;41.704;44.786;2024-02-16T13:36:34;20.17;;;10.73;;
79338;SDS011;74181;41.704;44.786;2024-02-16T13:39:00;26.35;;;11.45;;
79338;SDS011;74181;41.704;44.786;2024-02-16T13:41:26;35.58;;;15.18;;
79338;SDS011;74181;41.704;44.786;2024-02-16T13:43:52;28.88;;;11.63;;
79338;SDS011;74181;41.704;44.786;2024-02-16T13:46:18;27.37;;;11.83;;
79338;SDS011;74181;41.704;44.786;2024-02-16T13:48:45;24.52;;;10.70;;
79338;SDS011;74181;41.704;44.786;2024-02-16T13:51:11;41.85;;;14.88;;
79338;SDS011;74181;41.704;44.786;2024-02-16T13:53:37;26.77;;;12.27;;
79338;SDS011;74181;41.704;44.786;2024-02-16T13:56:03;25.77;;;11.90;;
79338;SDS011;74181;41.704;44.786;2024-02-16T13:58:31;26.30;;;12.13;;
79338;SDS011;74181;41.704;44.786;2024-02-16T14:00:58;26.65;;;11.85;;
79338;SDS011;74181;41.704;44.786;2024-02-16T14:03:24;27.50;;;13.10;;
79338;SDS011;74181;41.704;44.786;2024-02-16T14:05:50;31.35;;;13.70;;
79338;SDS011;74181;41.704;44.786;2024-02-16T14:08:18;30.58;;;13.13;;
79338;SDS011;74181;41.704;44.786;2024-02-16T14:10:44;35.93;;;14.50;;
79338;SDS011;74181;41.704;44.786;2024-02-16T14:13:10;35.05;;;15.10;;